KTVF/TVF METAR and TAF weather

Enter ICAO airport designator
Station Type Date Time Source
KTVF METAR 2024/06/14 02:56 UTC NOAA

KTVF 140256Z AUTO 00000KT 10SM FEW100 17/12 A2997 RMK AO2 SLP149 T01670117 53014


Station Type Date Time Source
KTVF Decoded METAR 2024/06/14 02:56 UTC NOAA

Thief River Falls, Thief River Falls Regional Airport, MN, United States (KTVF) 48-04N 096-11W
Jun 13, 2024 - 10:56 PM EDT / 2024.06.14 0256 UTC
Wind: Calm:0
Visibility: 10 mile(s):0
Sky conditions: mostly clear
Temperature: 62.1 F (16.7 C)
Dew Point: 53.1 F (11.7 C)
Relative Humidity: 72%
Pressure (altimeter): 29.97 in. Hg (1014 hPa)
Pressure tendency: 0.04 inches (1.4 hPa) higher than three hours ago
ob: KTVF 140256Z AUTO 00000KT 10SM FEW100 17/12 A2997 RMK AO2 SLP149 T01670117 53014
cycle: 3

Station Type Date Time Source
KTVF TAF 2024/06/14 02:06 UTC NOAA